Terminal Aerodrome Forecast
Issued by NWS Atlanta, GA

Home | Current Version | Previous Version | Text Only | Print | Product List | Glossary On
Versions: 1 2 3 4 5 6 7 8 9 10 11 12 13 14 15
000
FTUS42 KFFC 282329
TAFCSG
TAF
KCSG 282329Z 2900/2924 12008KT P6SM SCT060 BKN250
     FM290600 10004KT P6SM FEW025 OVC100
     FM290900 10004KT P6SM VCSH BKN010
     FM291400 12007KT 6SM -SHRA BKN018 PROB30 2915/2919 5SM TSRA
      BKN015CB
     FM291900 14007KT 6SM -SHRA BKN018=

USA.gov is the U.S. government's official web portal to all federal, state and local government web resources and services.